Time;durP1;ratioP1;P1;durP2;ratioP2;P2;SDS_P1;SDS_P2;PMS_P1;PMS_P2;Temp;Humidity;BMP_temperature;BMP_pressure;BME280_temperature;BME280_humidity;BME280_pressure;Samples;Min_cycle;Max_cycle;Signal;HPM_P1;HPM_P2
2021/04/23 00:00:57;;;;;;;3.00;2.47;;;2.20;69.20;;;;;;4967342;28;20027;-75
2021/04/23 00:03:31;;;;;;;6.00;2.20;;;2.20;69.30;;;;;;4961784;28;20019;-75
2021/04/23 00:06:09;;;;;;;4.43;2.33;;;2.10;69.70;;;;;;4981730;28;20026;-76
2021/04/23 00:08:35;;;;;;;4.13;2.55;;;2.20;68.80;;;;;;4967005;28;20074;-76
2021/04/23 00:11:03;;;;;;;4.82;2.60;;;2.20;68.40;;;;;;4971106;28;20031;-75
2021/04/23 00:13:29;;;;;;;3.72;2.15;;;2.10;69.00;;;;;;4965134;28;20106;-76
2021/04/23 00:15:56;;;;;;;3.33;1.60;;;2.10;69.90;;;;;;4968027;28;20109;-75
2021/04/23 00:18:22;;;;;;;4.80;2.35;;;2.10;69.70;;;;;;4961785;28;20030;-76
2021/04/23 00:20:49;;;;;;;6.45;2.45;;;2.00;69.60;;;;;;4969656;28;20030;-75
2021/04/23 00:23:15;;;;;;;3.72;2.20;;;2.00;69.30;;;;;;4961298;28;20633;-76
2021/04/23 00:25:41;;;;;;;6.95;2.35;;;2.10;69.20;;;;;;4966693;28;20493;-76
2021/04/23 00:28:11;;;;;;;3.70;2.35;;;2.10;69.60;;;;;;4969582;28;20030;-75
2021/04/23 00:30:41;;;;;;;2.53;1.83;;;2.00;70.50;;;;;;4966779;28;20097;-76
2021/04/23 00:33:07;;;;;;;4.03;2.42;;;1.90;71.00;;;;;;4965293;28;20027;-76
2021/04/23 00:35:38;;;;;;;4.55;2.35;;;1.80;71.50;;;;;;4966163;28;20023;-76
2021/04/23 00:38:06;;;;;;;4.38;2.20;;;1.90;71.00;;;;;;4967394;28;20027;-76
2021/04/23 00:40:41;;;;;;;7.72;2.65;;;2.00;70.90;;;;;;4985366;28;20038;-75
2021/04/23 00:43:08;;;;;;;8.50;3.85;;;2.10;70.50;;;;;;4960049;28;20734;-76
2021/04/23 00:45:34;;;;;;;11.20;2.65;;;2.00;70.20;;;;;;4967145;28;20046;-74
2021/04/23 00:48:02;;;;;;;5.85;2.33;;;2.10;70.80;;;;;;4963233;28;20482;-77
2021/04/23 00:50:27;;;;;;;3.35;2.20;;;2.00;69.40;;;;;;4968853;28;20043;-76
2021/04/23 00:52:54;;;;;;;6.57;2.28;;;1.90;69.80;;;;;;4964992;28;20393;-76
2021/04/23 00:55:20;;;;;;;2.65;2.20;;;2.00;69.70;;;;;;4971451;28;20085;-76
2021/04/23 00:57:45;;;;;;;3.10;1.83;;;2.00;69.50;;;;;;4965055;28;20030;-76
2021/04/23 01:00:12;;;;;;;6.53;2.45;;;2.00;69.30;;;;;;4962676;28;20038;-77
2021/04/23 01:02:37;;;;;;;4.70;2.50;;;1.90;69.90;;;;;;4962747;28;20524;-76
2021/04/23 01:05:04;;;;;;;4.65;2.47;;;1.90;68.00;;;;;;4978500;28;20034;-76
2021/04/23 01:07:29;;;;;;;5.32;2.10;;;1.80;69.30;;;;;;4969295;28;20031;-77
2021/04/23 01:09:56;;;;;;;4.78;2.10;;;1.60;70.20;;;;;;4982637;28;20026;-76
2021/04/23 01:12:22;;;;;;;5.63;2.60;;;1.40;71.30;;;;;;4968035;28;20039;-76
2021/04/23 01:14:48;;;;;;;7.07;2.67;;;1.30;72.10;;;;;;4965532;28;20114;-76
2021/04/23 01:17:13;;;;;;;8.48;3.05;;;1.30;71.80;;;;;;4967980;28;20030;-76
2021/04/23 01:19:39;;;;;;;2.60;2.33;;;1.30;72.30;;;;;;4966276;28;20106;-76
2021/04/23 01:22:05;;;;;;;5.63;2.53;;;1.30;71.70;;;;;;4968273;28;20068;-77
2021/04/23 01:24:31;;;;;;;4.10;2.80;;;1.30;71.00;;;;;;4962994;28;20034;-76
2021/04/23 01:26:57;;;;;;;4.78;2.70;;;1.40;70.40;;;;;;4967868;28;20052;-76
2021/04/23 01:29:25;;;;;;;3.15;2.00;;;1.40;70.20;;;;;;4965321;28;20690;-76
2021/04/23 01:31:53;;;;;;;6.53;2.30;;;1.30;70.60;;;;;;4964059;28;20613;-77
2021/04/23 01:34:27;;;;;;;2.78;2.22;;;1.40;71.10;;;;;;4964986;28;20092;-75
2021/04/23 01:36:54;;;;;;;3.10;2.08;;;1.40;70.80;;;;;;4969094;28;20038;-76
2021/04/23 01:39:22;;;;;;;6.68;2.58;;;1.40;71.50;;;;;;4967249;28;20035;-76
2021/04/23 01:41:49;;;;;;;;;;;1.40;71.80;;;;;;4966818;28;20027;-76
2021/04/23 01:44:16;;;;;;;2.92;1.55;;;1.30;72.00;;;;;;4961790;28;20380;-75
2021/04/23 01:46:42;;;;;;;4.80;2.03;;;1.20;72.20;;;;;;4969794;28;20236;-75
2021/04/23 01:49:14;;;;;;;6.82;2.03;;;1.30;72.30;;;;;;4966872;28;20030;-76
2021/04/23 01:51:53;;;;;;;2.72;2.17;;;1.20;72.40;;;;;;4966556;28;20079;-76
2021/04/23 01:54:19;;;;;;;;;;;1.30;72.60;;;;;;4966478;28;20030;-76
2021/04/23 01:56:45;;;;;;;2.00;1.90;;;1.30;73.40;;;;;;4962690;28;19934;-75
2021/04/23 01:59:14;;;;;;;3.53;2.20;;;1.30;72.90;;;;;;4963192;28;20035;-75
2021/04/23 02:01:40;;;;;;;2.92;2.72;;;1.30;72.80;;;;;;4964595;28;20035;-76
2021/04/23 02:04:07;;;;;;;6.72;2.58;;;1.40;72.70;;;;;;4963704;28;20448;-75
2021/04/23 02:06:33;;;;;;;3.67;2.33;;;1.40;72.50;;;;;;4965512;28;20030;-75
2021/04/23 02:08:59;;;;;;;3.70;2.22;;;1.30;72.90;;;;;;4964671;28;20090;-76
2021/04/23 02:11:26;;;;;;;3.33;2.08;;;1.30;72.40;;;;;;4968791;28;20134;-76
2021/04/23 02:13:55;;;;;;;4.10;2.33;;;1.20;73.10;;;;;;4962800;28;20031;-75
2021/04/23 02:16:21;;;;;;;3.47;2.17;;;1.20;72.50;;;;;;4964814;28;20034;-76
2021/04/23 02:18:47;;;;;;;2.28;2.00;;;1.30;72.60;;;;;;4966465;28;20019;-74
2021/04/23 02:21:14;;;;;;;9.43;2.80;;;1.20;73.60;;;;;;4971779;28;20122;-75
2021/04/23 02:23:44;;;;;;;11.18;2.70;;;1.10;72.90;;;;;;4971249;28;20441;-75
2021/04/23 02:26:11;;;;;;;4.50;2.45;;;1.20;72.60;;;;;;4972670;28;20027;-76
2021/04/23 02:28:37;;;;;;;5.50;2.90;;;1.10;72.60;;;;;;4968580;28;20106;-75
2021/04/23 02:31:05;;;;;;;2.80;1.83;;;1.20;72.50;;;;;;4984446;28;20544;-75
2021/04/23 02:33:31;;;;;;;;;;;1.10;72.90;;;;;;4965783;28;20031;-75
2021/04/23 02:35:58;;;;;;;4.63;2.47;;;1.10;72.80;;;;;;4971033;28;19941;-78
2021/04/23 02:38:25;;;;;;;4.72;2.38;;;1.10;72.50;;;;;;4966347;28;20039;-75
2021/04/23 02:40:52;;;;;;;4.57;2.03;;;1.00;72.60;;;;;;4972076;28;20533;-75
2021/04/23 02:43:23;;;;;;;3.30;2.08;;;1.00;72.50;;;;;;4971421;28;20045;-74
2021/04/23 02:45:50;;;;;;;3.28;2.55;;;0.80;72.60;;;;;;4972619;28;20031;-73
2021/04/23 02:48:17;;;;;;;2.67;1.90;;;0.80;73.60;;;;;;4967779;28;20410;-75
2021/04/23 02:50:47;;;;;;;2.45;2.03;;;0.70;72.10;;;;;;4974118;28;20049;-76
2021/04/23 02:53:15;;;;;;;2.78;1.88;;;0.70;72.60;;;;;;4970317;28;20081;-76
2021/04/23 02:55:41;;;;;;;4.63;2.47;;;0.70;72.70;;;;;;4967653;28;20031;-75
2021/04/23 02:58:11;;;;;;;2.50;2.28;;;0.60;72.90;;;;;;4965655;28;20047;-76
2021/04/23 03:00:40;;;;;;;6.22;2.65;;;0.60;72.70;;;;;;4962544;28;20058;-76
2021/04/23 03:03:07;;;;;;;4.15;2.33;;;0.70;73.00;;;;;;4962809;28;20033;-75
2021/04/23 03:05:35;;;;;;;2.13;1.92;;;0.70;73.60;;;;;;4966940;28;20383;-75
2021/04/23 03:08:02;;;;;;;2.53;2.03;;;0.70;73.80;;;;;;4962587;28;20031;-76
2021/04/23 03:10:31;;;;;;;3.33;2.22;;;0.70;74.10;;;;;;4968869;28;20039;-76
2021/04/23 03:13:02;;;;;;;3.28;1.98;;;0.60;74.30;;;;;;4968214;28;20058;-76
2021/04/23 03:15:28;;;;;;;3.30;2.10;;;0.60;74.60;;;;;;4964706;28;20027;-77
2021/04/23 03:17:57;;;;;;;2.67;2.03;;;0.60;74.20;;;;;;4961111;28;20390;-76
2021/04/23 03:20:25;;;;;;;2.55;2.33;;;0.50;73.60;;;;;;4966127;28;20026;-76
2021/04/23 03:22:51;;;;;;;5.03;2.35;;;0.50;73.50;;;;;;4967458;28;20023;-76
2021/04/23 03:25:16;;;;;;;3.42;2.13;;;0.30;73.40;;;;;;4970675;28;20041;-76
2021/04/23 03:27:43;;;;;;;3.10;2.00;;;0.10;73.30;;;;;;4964573;28;20417;-76
2021/04/23 03:30:16;;;;;;;2.95;2.05;;;0.10;74.60;;;;;;4969432;28;20026;-76
2021/04/23 03:32:42;;;;;;;3.15;2.03;;;0.00;75.70;;;;;;4972048;28;20391;-75
2021/04/23 03:35:09;;;;;;;8.38;2.95;;;0.00;76.20;;;;;;4983215;28;20054;-75
2021/04/23 03:37:35;;;;;;;3.85;2.45;;;0.10;75.70;;;;;;4968458;28;20027;-75
2021/04/23 03:40:01;;;;;;;3.67;2.38;;;0.10;75.50;;;;;;4962214;28;20031;-75
2021/04/23 03:42:27;;;;;;;2.65;2.10;;;0.20;75.70;;;;;;4969490;28;20023;-76
2021/04/23 03:44:54;;;;;;;5.70;2.22;;;0.10;76.00;;;;;;4970126;28;20023;-75
2021/04/23 03:47:20;;;;;;;2.72;2.15;;;0.10;75.70;;;;;;4965287;28;20029;-76
2021/04/23 03:49:46;;;;;;;5.03;2.38;;;0.20;75.10;;;;;;4970282;28;20042;-75
2021/04/23 03:52:11;;;;;;;9.40;2.30;;;0.20;75.10;;;;;;4968530;28;20043;-75
2021/04/23 03:54:37;;;;;;;2.15;1.90;;;0.20;75.60;;;;;;4964865;28;20027;-75
2021/04/23 03:57:04;;;;;;;5.05;2.47;;;0.20;76.10;;;;;;4969362;28;20035;-76
2021/04/23 03:59:31;;;;;;;2.67;2.45;;;0.20;75.30;;;;;;4968152;28;20029;-77
2021/04/23 04:01:56;;;;;;;5.20;2.97;;;0.20;75.10;;;;;;4967425;28;20588;-75
2021/04/23 04:04:22;;;;;;;5.55;2.08;;;0.20;74.90;;;;;;4965061;28;20047;-76
2021/04/23 04:06:48;;;;;;;6.07;2.75;;;0.20;75.20;;;;;;4969570;28;20038;-76
2021/04/23 04:09:13;;;;;;;2.70;2.40;;;0.20;74.70;;;;;;4962583;28;20039;-76
2021/04/23 04:11:39;;;;;;;7.10;3.60;;;0.10;74.90;;;;;;4965504;28;20038;-75
2021/04/23 04:14:05;;;;;;;4.70;2.22;;;0.10;75.10;;;;;;4967225;28;20454;-76
2021/04/23 04:16:31;;;;;;;5.15;2.28;;;0.00;74.60;;;;;;4964184;28;20030;-76
2021/04/23 04:18:56;;;;;;;12.23;2.70;;;0.00;74.50;;;;;;4962451;28;20034;-77
2021/04/23 04:21:22;;;;;;;1.92;1.73;;;-0.20;75.10;;;;;;4970289;28;20034;-75
2021/04/23 04:23:47;;;;;;;2.25;1.90;;;-0.30;75.30;;;;;;4965756;28;20476;-76
2021/04/23 04:26:13;;;;;;;3.25;2.33;;;-0.30;76.40;;;;;;4966282;28;20030;-76
2021/04/23 04:28:39;;;;;;;5.10;2.63;;;-0.30;77.00;;;;;;4970064;28;20465;-76
2021/04/23 04:31:05;;;;;;;3.45;2.33;;;-0.30;78.70;;;;;;4968792;28;20514;-76
2021/04/23 04:33:30;;;;;;;1.98;1.75;;;-0.20;77.20;;;;;;4967960;28;20049;-76
2021/04/23 04:35:56;;;;;;;7.00;2.58;;;-0.20;77.40;;;;;;4970258;28;20433;-75
2021/04/23 04:38:22;;;;;;;3.63;2.53;;;-0.20;77.30;;;;;;4971065;28;20038;-76
2021/04/23 04:40:49;;;;;;;12.82;2.92;;;-0.10;77.30;;;;;;4968612;28;20077;-76
2021/04/23 04:43:16;;;;;;;8.25;2.38;;;0.00;76.70;;;;;;4963535;28;20023;-76
2021/04/23 04:45:43;;;;;;;7.80;3.17;;;0.10;76.20;;;;;;4969795;28;20030;-76
2021/04/23 04:48:10;;;;;;;4.00;2.42;;;0.20;76.30;;;;;;4966890;28;20041;-75
2021/04/23 04:50:46;;;;;;;3.00;1.98;;;0.20;76.00;;;;;;4970393;28;20023;-76
2021/04/23 04:53:13;;;;;;;3.00;2.30;;;0.20;75.50;;;;;;4976797;28;20037;-76
2021/04/23 04:55:42;;;;;;;4.75;2.90;;;0.30;75.80;;;;;;4971000;28;20035;-76
2021/04/23 04:58:10;;;;;;;3.00;2.72;;;0.40;75.90;;;;;;4966244;28;20027;-76
2021/04/23 05:00:38;;;;;;;5.47;3.67;;;0.40;76.10;;;;;;4967923;28;20146;-75
2021/04/23 05:03:04;;;;;;;4.60;2.77;;;0.40;76.90;;;;;;4968554;28;20446;-75
2021/04/23 05:05:31;;;;;;;6.93;2.85;;;0.40;76.10;;;;;;4964727;28;20873;-76
2021/04/23 05:07:57;;;;;;;4.72;2.92;;;0.40;76.00;;;;;;4970030;28;20114;-74
2021/04/23 05:10:23;;;;;;;8.65;3.20;;;0.40;75.70;;;;;;4975680;28;20034;-76
2021/04/23 05:12:49;;;;;;;2.60;2.10;;;0.40;75.50;;;;;;4986570;28;20022;-75
2021/04/23 05:15:17;;;;;;;6.28;2.17;;;0.40;75.10;;;;;;4966225;28;20026;-76
2021/04/23 05:17:43;;;;;;;2.97;2.40;;;0.40;76.30;;;;;;4958141;28;20026;-75
2021/04/23 05:20:11;;;;;;;6.05;2.65;;;0.40;76.50;;;;;;4960255;28;20023;-75
2021/04/23 05:22:37;;;;;;;2.67;2.47;;;0.50;76.20;;;;;;4968382;28;20050;-76
2021/04/23 05:25:08;;;;;;;3.58;2.83;;;0.50;76.80;;;;;;4963196;28;20088;-75
2021/04/23 05:27:35;;;;;;;5.22;2.88;;;0.60;76.60;;;;;;4968292;28;20031;-76
2021/04/23 05:30:02;;;;;;;10.75;4.40;;;0.70;76.60;;;;;;4966915;28;20034;-75
2021/04/23 05:32:28;;;;;;;4.10;2.70;;;0.80;76.60;;;;;;4963727;28;20133;-76
2021/04/23 05:34:54;;;;;;;4.82;2.47;;;0.90;75.40;;;;;;4966703;28;20106;-75
2021/04/23 05:37:21;;;;;;;3.35;2.50;;;1.00;75.80;;;;;;4967978;28;20039;-75
2021/04/23 05:39:47;;;;;;;7.82;2.40;;;1.00;76.10;;;;;;4966501;28;20027;-75
2021/04/23 05:42:13;;;;;;;4.00;2.45;;;1.10;75.10;;;;;;4964793;28;20545;-76
2021/04/23 05:44:39;;;;;;;4.60;2.75;;;1.20;75.50;;;;;;4967230;28;20541;-76
2021/04/23 05:47:05;;;;;;;5.75;2.88;;;1.30;75.50;;;;;;4967017;28;20146;-75
2021/04/23 05:49:34;;;;;;;4.25;2.60;;;1.40;75.60;;;;;;4962716;28;20489;-76
2021/04/23 05:52:01;;;;;;;4.57;3.22;;;1.50;75.30;;;;;;4972719;28;20402;-75
2021/04/23 05:54:28;;;;;;;3.70;2.88;;;1.60;75.80;;;;;;4972923;28;20042;-76
2021/04/23 05:56:54;;;;;;;3.92;2.65;;;1.70;75.40;;;;;;4965205;28;20015;-75
2021/04/23 05:59:20;;;;;;;3.90;2.67;;;1.80;75.70;;;;;;4969579;28;20669;-75
2021/04/23 06:01:46;;;;;;;7.60;3.00;;;1.90;75.60;;;;;;4969940;28;20045;-76
2021/04/23 06:04:13;;;;;;;9.85;3.95;;;2.00;75.40;;;;;;4968470;28;20070;-76
2021/04/23 06:06:39;;;;;;;4.50;2.55;;;2.10;75.20;;;;;;4968231;28;20036;-75
2021/04/23 06:09:06;;;;;;;4.95;2.78;;;2.10;75.00;;;;;;4969058;28;20081;-76
2021/04/23 06:11:32;;;;;;;6.32;3.28;;;2.20;74.50;;;;;;4972048;28;20159;-76
2021/04/23 06:13:58;;;;;;;5.30;3.05;;;2.20;74.30;;;;;;4970235;28;20111;-76
2021/04/23 06:16:24;;;;;;;6.53;3.30;;;2.30;74.40;;;;;;4964111;28;20539;-75
2021/04/23 06:18:50;;;;;;;6.47;3.45;;;2.40;74.50;;;;;;4964980;28;20077;-75
2021/04/23 06:21:15;;;;;;;5.88;3.33;;;2.60;74.90;;;;;;4970662;28;20023;-75
2021/04/23 06:23:41;;;;;;;5.85;3.88;;;2.70;74.80;;;;;;4966899;28;20031;-75
2021/04/23 06:26:07;;;;;;;7.20;3.40;;;2.80;73.60;;;;;;4965220;28;20670;-75
2021/04/23 06:28:34;;;;;;;5.50;3.28;;;2.90;73.70;;;;;;4965273;28;20032;-75
2021/04/23 06:31:02;;;;;;;7.10;3.00;;;2.90;72.60;;;;;;4965600;28;20070;-76
2021/04/23 06:33:34;;;;;;;10.45;3.92;;;3.00;73.40;;;;;;4985744;28;20038;-76
2021/04/23 06:36:00;;;;;;;7.35;3.92;;;3.20;73.30;;;;;;4972416;28;20042;-76
2021/04/23 06:38:26;;;;;;;6.47;3.90;;;3.30;73.20;;;;;;4973298;28;20038;-75
2021/04/23 06:40:52;;;;;;;4.93;2.80;;;3.40;73.00;;;;;;4971482;28;20033;-76
2021/04/23 06:43:17;;;;;;;6.18;3.47;;;3.60;72.20;;;;;;4971641;28;20029;-76
2021/04/23 06:45:45;;;;;;;5.78;3.55;;;3.70;72.10;;;;;;4968123;28;20437;-76
2021/04/23 06:48:12;;;;;;;6.82;3.78;;;3.90;71.30;;;;;;4970800;28;20186;-75
2021/04/23 06:50:38;;;;;;;7.50;3.70;;;4.10;70.10;;;;;;4965537;28;20434;-76
2021/04/23 06:53:04;;;;;;;11.15;4.63;;;4.20;69.40;;;;;;4959839;28;20161;-76
2021/04/23 06:55:30;;;;;;;10.02;4.57;;;4.50;69.10;;;;;;4967200;28;20031;-76
2021/04/23 06:57:56;;;;;;;10.57;5.22;;;4.70;69.10;;;;;;4986098;28;20025;-76
2021/04/23 07:00:28;;;;;;;6.78;4.10;;;4.80;69.00;;;;;;4968642;28;20024;-75
2021/04/23 07:02:54;;;;;;;6.13;4.38;;;5.00;68.00;;;;;;4969951;28;20504;-76
2021/04/23 07:05:21;;;;;;;7.10;4.47;;;5.10;68.60;;;;;;4968865;28;20548;-76
2021/04/23 07:07:47;;;;;;;9.85;4.97;;;5.30;68.50;;;;;;4974180;28;20378;-76
2021/04/23 07:10:16;;;;;;;8.50;3.75;;;5.50;70.20;;;;;;4962097;28;20051;-76
2021/04/23 07:12:42;;;;;;;7.82;4.15;;;5.70;68.20;;;;;;4964842;28;20078;-76
2021/04/23 07:15:15;;;;;;;11.90;4.25;;;5.80;67.00;;;;;;4967929;28;20529;-75
2021/04/23 07:17:42;;;;;;;12.32;4.82;;;6.00;66.20;;;;;;4969739;28;20664;-76
2021/04/23 07:20:08;;;;;;;8.15;4.03;;;6.10;66.00;;;;;;4965527;28;20019;-76
2021/04/23 07:22:34;;;;;;;9.93;3.80;;;6.30;64.50;;;;;;4970088;28;20023;-76
2021/04/23 07:24:59;;;;;;;9.85;3.10;;;6.40;65.50;;;;;;4966511;28;20512;-75
2021/04/23 07:27:25;;;;;;;11.18;3.92;;;6.60;65.60;;;;;;4966661;28;20705;-76
2021/04/23 07:29:51;;;;;;;9.38;3.60;;;6.80;61.40;;;;;;4963805;28;20031;-75
2021/04/23 07:32:16;;;;;;;9.07;3.63;;;6.80;62.30;;;;;;4961442;28;20039;-76
2021/04/23 07:34:42;;;;;;;10.38;3.92;;;6.90;62.00;;;;;;4969584;28;20047;-76
2021/04/23 07:37:07;;;;;;;8.23;3.30;;;7.10;61.00;;;;;;4964510;28;20030;-75
2021/04/23 07:39:33;;;;;;;9.73;3.38;;;7.20;59.80;;;;;;4967894;28;20030;-75
2021/04/23 07:42:00;;;;;;;7.80;3.72;;;7.30;59.80;;;;;;4966655;28;20023;-75
2021/04/23 07:44:27;;;;;;;5.60;3.80;;;7.50;61.80;;;;;;4968856;28;20485;-75
2021/04/23 07:46:52;;;;;;;7.70;2.90;;;7.70;60.60;;;;;;4964715;28;20526;-76
2021/04/23 07:49:18;;;;;;;6.43;3.35;;;7.90;59.00;;;;;;4971585;28;20119;-76
2021/04/23 07:51:43;;;;;;;8.88;4.22;;;8.00;60.10;;;;;;4972274;28;20118;-76
2021/04/23 07:54:09;;;;;;;9.20;3.65;;;8.10;59.40;;;;;;4970461;28;20564;-76
2021/04/23 07:56:36;;;;;;;11.68;3.97;;;8.20;59.30;;;;;;4969621;28;20035;-75
2021/04/23 07:59:03;;;;;;;8.32;3.60;;;8.30;60.70;;;;;;4967544;28;20043;-76
2021/04/23 08:01:28;;;;;;;8.73;3.22;;;8.40;59.60;;;;;;4966875;28;20079;-75
2021/04/23 08:03:54;;;;;;;14.32;3.70;;;8.60;58.50;;;;;;4962190;28;20238;-75
2021/04/23 08:06:19;;;;;;;7.35;3.25;;;8.70;58.80;;;;;;4968196;28;20022;-76
2021/04/23 08:08:45;;;;;;;8.60;3.60;;;8.80;58.40;;;;;;4972394;28;20030;-76
2021/04/23 08:11:11;;;;;;;6.88;3.30;;;8.90;56.00;;;;;;4965800;28;20063;-76
2021/04/23 08:13:36;;;;;;;8.57;3.72;;;9.00;54.90;;;;;;4978226;28;20046;-75
2021/04/23 08:16:02;;;;;;;9.98;2.83;;;9.10;56.80;;;;;;4970653;28;20508;-75
2021/04/23 08:18:28;;;;;;;9.48;2.95;;;9.30;50.10;;;;;;4966675;28;20035;-75
2021/04/23 08:20:53;;;;;;;8.65;2.90;;;9.40;52.80;;;;;;4980566;28;20425;-75
2021/04/23 08:23:19;;;;;;;4.05;2.45;;;9.50;49.70;;;;;;4968061;28;20027;-75
2021/04/23 08:25:45;;;;;;;9.02;3.08;;;9.60;50.10;;;;;;4967236;28;20026;-76
2021/04/23 08:28:10;;;;;;;7.60;2.83;;;9.70;50.50;;;;;;4965540;28;20113;-75
2021/04/23 08:30:36;;;;;;;10.10;3.40;;;9.90;51.20;;;;;;4963631;28;20409;-75
2021/04/23 08:33:02;;;;;;;8.20;3.38;;;9.90;51.40;;;;;;4970860;28;20030;-76
2021/04/23 08:35:28;;;;;;;9.50;3.17;;;9.90;50.00;;;;;;4967232;28;20031;-76
2021/04/23 08:37:54;;;;;;;5.47;2.40;;;10.00;50.00;;;;;;4970729;28;20023;-75
2021/04/23 08:40:21;;;;;;;10.75;2.85;;;10.00;49.50;;;;;;4968272;28;20074;-76
2021/04/23 08:42:47;;;;;;;9.07;2.70;;;10.10;49.00;;;;;;4969671;28;20405;-75
2021/04/23 08:45:16;;;;;;;9.25;3.63;;;10.10;48.30;;;;;;4966858;28;20405;-76
2021/04/23 08:47:43;;;;;;;5.75;2.58;;;10.30;46.70;;;;;;4968695;28;20026;-76
2021/04/23 08:50:10;;;;;;;5.55;3.22;;;10.30;45.10;;;;;;4970542;28;20475;-76
2021/04/23 08:52:36;;;;;;;7.53;3.08;;;10.40;46.10;;;;;;4967687;28;20126;-77
2021/04/23 08:55:04;;;;;;;6.65;2.70;;;10.50;47.20;;;;;;4965094;28;20114;-76
2021/04/23 08:57:30;;;;;;;7.90;3.25;;;10.60;48.10;;;;;;4967850;28;20027;-76
2021/04/23 08:59:55;;;;;;;7.30;3.20;;;10.60;46.10;;;;;;4967780;28;20031;-76
2021/04/23 09:02:21;;;;;;;6.63;2.80;;;10.60;44.30;;;;;;4969262;28;20039;-76
2021/04/23 09:04:47;;;;;;;5.85;2.78;;;10.60;45.90;;;;;;4967457;28;20086;-76
2021/04/23 09:07:13;;;;;;;8.52;3.30;;;10.70;46.40;;;;;;4962432;28;20161;-76
2021/04/23 09:09:41;;;;;;;4.60;3.00;;;10.70;47.10;;;;;;4963491;28;20183;-75
2021/04/23 09:12:16;;;;;;;7.82;3.60;;;10.80;47.10;;;;;;4962111;28;20023;-75
2021/04/23 09:14:42;;;;;;;6.75;3.20;;;11.00;47.10;;;;;;4961741;28;20034;-76
2021/04/23 09:17:07;;;;;;;8.23;3.40;;;11.00;45.00;;;;;;4966203;28;20031;-76
2021/04/23 09:19:35;;;;;;;6.88;3.38;;;11.00;47.60;;;;;;4965762;28;20027;-76
2021/04/23 09:22:05;;;;;;;6.50;2.50;;;11.10;45.80;;;;;;4966825;28;20031;-76
2021/04/23 09:24:39;;;;;;;3.70;2.65;;;11.20;42.80;;;;;;4964540;28;20102;-76
2021/04/23 09:27:11;;;;;;;6.00;2.80;;;11.20;43.80;;;;;;4964280;28;20489;-76
2021/04/23 09:29:39;;;;;;;6.15;2.55;;;11.30;43.00;;;;;;4964972;28;20045;-77
2021/04/23 09:32:15;;;;;;;4.68;2.83;;;11.50;43.70;;;;;;4964967;28;20084;-76
2021/04/23 09:35:03;;;;;;;4.65;2.70;;;11.60;43.10;;;;;;4966120;28;20437;-76
2021/04/23 09:37:31;;;;;;;4.88;2.85;;;11.70;43.60;;;;;;4967622;28;20458;-76
2021/04/23 09:40:11;;;;;;;6.97;2.53;;;11.80;40.30;;;;;;4972766;28;20038;-76
2021/04/23 09:42:47;;;;;;;9.52;3.17;;;11.80;40.10;;;;;;4968567;28;20512;-76
2021/04/23 09:45:14;;;;;;;5.65;2.50;;;11.80;41.00;;;;;;4969487;28;20030;-75
2021/04/23 09:47:39;;;;;;;6.13;2.80;;;11.90;43.90;;;;;;4966565;28;20035;-75
2021/04/23 09:50:06;;;;;;;4.95;2.50;;;11.90;41.20;;;;;;4960830;28;20033;-76
2021/04/23 09:52:33;;;;;;;6.40;3.28;;;12.00;44.10;;;;;;4968816;28;20030;-76
2021/04/23 09:55:03;;;;;;;7.78;3.47;;;12.00;44.10;;;;;;4959448;28;20442;-75
2021/04/23 09:57:33;;;;;;;8.85;3.40;;;11.90;43.20;;;;;;4960651;28;20051;-75
2021/04/23 10:00:11;;;;;;;9.68;3.03;;;11.80;43.60;;;;;;4962797;28;20014;-76
2021/04/23 10:02:38;;;;;;;9.57;3.70;;;11.90;41.00;;;;;;4956905;28;20125;-76
2021/04/23 10:05:05;;;;;;;5.65;3.20;;;12.00;42.60;;;;;;4958657;28;20414;-76
2021/04/23 10:07:32;;;;;;;6.00;2.75;;;12.10;40.30;;;;;;4963533;28;20026;-76
2021/04/23 10:10:10;;;;;;;7.05;3.40;;;12.10;41.50;;;;;;4955833;28;20545;-75
2021/04/23 10:12:42;;;;;;;5.30;2.70;;;12.20;41.20;;;;;;4956670;28;20430;-75
2021/04/23 10:15:14;;;;;;;7.40;3.13;;;12.20;41.80;;;;;;4960620;28;20022;-76
2021/04/23 10:17:42;;;;;;;7.65;3.40;;;12.10;45.70;;;;;;4962783;28;20033;-76
2021/04/23 10:20:11;;;;;;;7.82;3.08;;;12.20;42.20;;;;;;4969816;28;20023;-74
2021/04/23 10:22:36;;;;;;;;;;;12.10;44.00;;;;;;4970745;28;20031;-77
2021/04/23 10:25:04;;;;;;;10.82;3.42;;;12.20;46.90;;;;;;4970234;28;19917;-75
2021/04/23 10:27:33;;;;;;;4.07;2.72;;;12.30;43.50;;;;;;4968357;28;20413;-75
2021/04/23 10:30:06;;;;;;;7.18;3.05;;;12.30;39.60;;;;;;4970031;28;20225;-75
2021/04/23 10:32:34;;;;;;;8.45;3.05;;;12.40;39.50;;;;;;4966964;28;20461;-74
2021/04/23 10:35:00;;;;;;;7.28;3.42;;;12.50;42.80;;;;;;4961940;28;20440;-75
2021/04/23 10:37:26;;;;;;;8.15;3.15;;;12.50;43.30;;;;;;4970663;28;20019;-75
2021/04/23 10:39:52;;;;;;;8.02;3.47;;;12.60;40.50;;;;;;4969245;28;20023;-75
2021/04/23 10:42:55;;;;;;;6.60;3.10;;;12.50;43.20;;;;;;4968022;28;20397;-75
2021/04/23 10:45:21;;;;;;;8.02;2.80;;;12.50;40.40;;;;;;4967573;28;20043;-75
2021/04/23 10:47:48;;;;;;;9.07;2.88;;;12.60;40.20;;;;;;4972074;28;20033;-75
2021/04/23 10:50:19;;;;;;;6.05;3.15;;;12.70;40.60;;;;;;4970834;28;20514;-75
2021/04/23 10:53:09;;;;;;;4.82;3.17;;;12.70;37.10;;;;;;4971657;28;20172;-76
2021/04/23 10:55:40;;;;;;;9.45;2.97;;;12.80;45.80;;;;;;4965699;28;20019;-75
2021/04/23 10:58:07;;;;;;;4.20;2.53;;;12.70;44.20;;;;;;4973284;28;20496;-75
2021/04/23 11:00:38;;;;;;;4.78;2.85;;;12.70;43.40;;;;;;4963703;28;20035;-76
2021/04/23 11:03:25;;;;;;;7.47;2.88;;;12.80;42.10;;;;;;4963955;28;20027;-76
2021/04/23 11:06:11;;;;;;;6.10;3.15;;;12.90;39.70;;;;;;4967740;28;20023;-75
2021/04/23 11:08:38;;;;;;;8.82;3.05;;;12.90;39.40;;;;;;4961056;28;20035;-76
2021/04/23 11:11:10;;;;;;;5.38;3.03;;;13.00;44.00;;;;;;4970825;28;20054;-76
2021/04/23 11:13:37;;;;;;;4.38;2.50;;;13.10;43.40;;;;;;4970233;28;20023;-76
2021/04/23 11:16:18;;;;;;;9.43;2.88;;;13.10;38.10;;;;;;4972743;28;20038;-75
2021/04/23 11:18:47;;;;;;;8.55;3.10;;;13.10;39.60;;;;;;4978431;28;20031;-75
2021/04/23 11:21:31;;;;;;;4.72;3.58;;;13.10;38.80;;;;;;4970333;28;20102;-75
2021/04/23 11:24:15;;;;;;;8.00;3.05;;;13.10;39.50;;;;;;4970365;28;20031;-75
2021/04/23 11:27:05;;;;;;;7.68;3.13;;;13.20;39.50;;;;;;4965782;28;20050;-75
2021/04/23 11:29:42;;;;;;;8.75;3.30;;;13.30;38.60;;;;;;4982002;28;20034;-76
2021/04/23 11:32:26;;;;;;;7.05;3.40;;;13.30;42.40;;;;;;4965790;28;20619;-76
2021/04/23 11:35:10;;;;;;;7.20;2.83;;;13.30;43.50;;;;;;4965971;28;20039;-77
2021/04/23 11:37:41;;;;;;;6.70;2.97;;;13.10;40.10;;;;;;4968581;28;20094;-76
2021/04/23 11:40:13;;;;;;;6.03;3.72;;;13.10;40.70;;;;;;4969111;28;20065;-75
2021/04/23 11:42:44;;;;;;;8.80;3.35;;;13.10;40.00;;;;;;4971860;28;20086;-75
2021/04/23 11:45:14;;;;;;;6.80;3.33;;;13.20;44.20;;;;;;4968913;28;20085;-75
2021/04/23 11:47:47;;;;;;;6.25;3.63;;;13.20;39.90;;;;;;4967221;28;20015;-75
2021/04/23 11:50:21;;;;;;;8.23;3.28;;;13.30;39.50;;;;;;4966716;28;20405;-75
2021/04/23 11:52:54;;;;;;;5.88;3.13;;;13.40;36.90;;;;;;4968583;28;20023;-75
2021/04/23 11:55:23;;;;;;;5.50;3.13;;;13.50;38.90;;;;;;4969192;28;20034;-75
2021/04/23 11:57:51;;;;;;;5.80;3.30;;;13.60;38.70;;;;;;4966403;28;20101;-75
2021/04/23 12:00:18;;;;;;;;;;;13.70;36.20;;;;;;4964548;28;20026;-75
2021/04/23 12:02:52;;;;;;;5.22;3.15;;;13.60;38.40;;;;;;4967936;28;19975;-75
2021/04/23 12:05:36;;;;;;;5.53;2.85;;;13.60;36.60;;;;;;4969904;28;20091;-75
2021/04/23 12:08:24;;;;;;;6.45;3.65;;;13.60;37.50;;;;;;4967428;28;20485;-75
2021/04/23 12:10:50;;;;;;;3.05;2.75;;;13.60;37.10;;;;;;4959120;28;20078;-75
2021/04/23 12:13:19;;;;;;;8.60;3.65;;;13.60;41.20;;;;;;4967791;28;20030;-75
2021/04/23 12:15:46;;;;;;;9.13;3.55;;;13.70;36.80;;;;;;4968792;28;20027;-75
2021/04/23 12:18:13;;;;;;;6.23;2.93;;;13.60;37.20;;;;;;4967304;28;20111;-75
2021/04/23 12:20:50;;;;;;;11.15;3.22;;;13.70;40.00;;;;;;4966687;28;20765;-75
2021/04/23 12:23:22;;;;;;;4.95;3.00;;;13.60;39.80;;;;;;4967123;28;20026;-75
2021/04/23 12:25:50;;;;;;;8.85;3.50;;;13.70;40.10;;;;;;4968292;28;20078;-75
2021/04/23 12:28:34;;;;;;;4.15;3.08;;;13.60;34.60;;;;;;4965355;28;20030;-75
2021/04/23 12:31:17;;;;;;;6.68;3.65;;;13.50;34.00;;;;;;4965269;28;20551;-75
2021/04/23 12:33:49;;;;;;;6.18;3.55;;;13.50;35.30;;;;;;4967502;28;20085;-75
2021/04/23 12:36:37;;;;;;;10.27;3.33;;;13.60;36.50;;;;;;4962810;28;20517;-76
2021/04/23 12:39:09;;;;;;;7.43;3.72;;;13.60;35.90;;;;;;4963047;28;20018;-75
2021/04/23 12:41:39;;;;;;;6.15;2.92;;;13.80;41.90;;;;;;4963577;28;20096;-75
2021/04/23 12:44:08;;;;;;;6.97;3.67;;;13.80;38.70;;;;;;4979423;28;20022;-75
2021/04/23 12:46:41;;;;;;;7.15;3.45;;;13.80;41.40;;;;;;4957502;28;20090;-75
2021/04/23 12:49:11;;;;;;;5.57;3.25;;;13.80;41.00;;;;;;4960865;28;20026;-76
2021/04/23 12:51:45;;;;;;;4.63;3.00;;;13.80;38.50;;;;;;4960337;28;20027;-75
2021/04/23 12:54:12;;;;;;;8.75;3.35;;;13.80;39.70;;;;;;4959162;28;20026;-75
2021/04/23 12:56:39;;;;;;;9.95;3.45;;;13.80;38.20;;;;;;4954893;28;20106;-74
2021/04/23 12:59:05;;;;;;;7.28;2.60;;;13.80;36.20;;;;;;4969236;28;20034;-75